sensor_id;sensor_type;location;lat;lon;timestamp;P1;durP1;ratioP1;P2;durP2;ratioP2
23362;SDS011;11853;48.080;11.960;2023-05-07T00:01:42;4.38;;;4.07;;
23362;SDS011;11853;48.080;11.960;2023-05-07T00:04:08;5.57;;;3.97;;
23362;SDS011;11853;48.080;11.960;2023-05-07T00:06:33;4.22;;;3.90;;
23362;SDS011;11853;48.080;11.960;2023-05-07T00:08:59;4.90;;;4.40;;
23362;SDS011;11853;48.080;11.960;2023-05-07T00:11:26;5.18;;;4.63;;
23362;SDS011;11853;48.080;11.960;2023-05-07T00:13:53;3.78;;;3.58;;
23362;SDS011;11853;48.080;11.960;2023-05-07T00:16:18;4.43;;;4.03;;
23362;SDS011;11853;48.080;11.960;2023-05-07T00:18:44;5.00;;;4.60;;
23362;SDS011;11853;48.080;11.960;2023-05-07T00:21:10;4.47;;;4.07;;
23362;SDS011;11853;48.080;11.960;2023-05-07T00:23:36;6.07;;;4.72;;
23362;SDS011;11853;48.080;11.960;2023-05-07T00:26:02;5.60;;;4.50;;
23362;SDS011;11853;48.080;11.960;2023-05-07T00:28:29;5.13;;;4.72;;
23362;SDS011;11853;48.080;11.960;2023-05-07T00:30:54;5.20;;;4.70;;
23362;SDS011;11853;48.080;11.960;2023-05-07T00:33:20;5.05;;;4.60;;
23362;SDS011;11853;48.080;11.960;2023-05-07T00:35:47;5.05;;;4.65;;
23362;SDS011;11853;48.080;11.960;2023-05-07T00:38:13;5.50;;;5.07;;
23362;SDS011;11853;48.080;11.960;2023-05-07T00:40:39;5.78;;;5.18;;
23362;SDS011;11853;48.080;11.960;2023-05-07T00:43:05;6.00;;;5.40;;
23362;SDS011;11853;48.080;11.960;2023-05-07T00:45:32;6.30;;;5.70;;
23362;SDS011;11853;48.080;11.960;2023-05-07T00:47:59;5.32;;;4.82;;
23362;SDS011;11853;48.080;11.960;2023-05-07T00:50:27;5.93;;;5.35;;
23362;SDS011;11853;48.080;11.960;2023-05-07T00:52:53;6.57;;;5.95;;
23362;SDS011;11853;48.080;11.960;2023-05-07T00:55:20;7.63;;;5.95;;
23362;SDS011;11853;48.080;11.960;2023-05-07T00:57:46;6.40;;;5.82;;
23362;SDS011;11853;48.080;11.960;2023-05-07T01:00:13;7.18;;;6.28;;
23362;SDS011;11853;48.080;11.960;2023-05-07T01:02:39;6.60;;;6.00;;
23362;SDS011;11853;48.080;11.960;2023-05-07T01:05:05;7.30;;;5.82;;
23362;SDS011;11853;48.080;11.960;2023-05-07T01:07:34;6.13;;;5.63;;
23362;SDS011;11853;48.080;11.960;2023-05-07T01:10:01;6.10;;;5.60;;
23362;SDS011;11853;48.080;11.960;2023-05-07T01:12:28;6.72;;;5.50;;
23362;SDS011;11853;48.080;11.960;2023-05-07T01:14:54;6.93;;;6.10;;
23362;SDS011;11853;48.080;11.960;2023-05-07T01:17:20;6.25;;;5.20;;
23362;SDS011;11853;48.080;11.960;2023-05-07T01:19:46;7.35;;;5.80;;
23362;SDS011;11853;48.080;11.960;2023-05-07T01:22:13;6.03;;;5.53;;
23362;SDS011;11853;48.080;11.960;2023-05-07T01:24:41;5.65;;;5.22;;
23362;SDS011;11853;48.080;11.960;2023-05-07T01:27:08;5.75;;;5.32;;
23362;SDS011;11853;48.080;11.960;2023-05-07T01:29:33;6.05;;;5.60;;
23362;SDS011;11853;48.080;11.960;2023-05-07T01:31:59;6.20;;;5.70;;
23362;SDS011;11853;48.080;11.960;2023-05-07T01:34:30;6.18;;;5.57;;
23362;SDS011;11853;48.080;11.960;2023-05-07T01:36:57;6.30;;;5.70;;
23362;SDS011;11853;48.080;11.960;2023-05-07T01:39:25;5.95;;;5.45;;
23362;SDS011;11853;48.080;11.960;2023-05-07T01:41:53;6.55;;;5.90;;
23362;SDS011;11853;48.080;11.960;2023-05-07T01:44:22;6.20;;;5.63;;
23362;SDS011;11853;48.080;11.960;2023-05-07T01:46:48;6.60;;;6.00;;
23362;SDS011;11853;48.080;11.960;2023-05-07T01:49:15;6.72;;;6.05;;
23362;SDS011;11853;48.080;11.960;2023-05-07T01:51:41;7.20;;;6.50;;
23362;SDS011;11853;48.080;11.960;2023-05-07T01:54:08;7.20;;;6.60;;
23362;SDS011;11853;48.080;11.960;2023-05-07T01:56:34;8.35;;;6.72;;
23362;SDS011;11853;48.080;11.960;2023-05-07T01:59:12;7.43;;;6.65;;
23362;SDS011;11853;48.080;11.960;2023-05-07T02:01:38;7.63;;;6.93;;
23362;SDS011;11853;48.080;11.960;2023-05-07T02:04:04;6.75;;;6.18;;
23362;SDS011;11853;48.080;11.960;2023-05-07T02:06:29;6.90;;;6.18;;
23362;SDS011;11853;48.080;11.960;2023-05-07T02:08:56;6.55;;;5.95;;
23362;SDS011;11853;48.080;11.960;2023-05-07T02:11:21;6.40;;;5.80;;
23362;SDS011;11853;48.080;11.960;2023-05-07T02:13:47;6.50;;;6.00;;
23362;SDS011;11853;48.080;11.960;2023-05-07T02:16:13;6.55;;;5.95;;
23362;SDS011;11853;48.080;11.960;2023-05-07T02:18:39;6.78;;;6.07;;
23362;SDS011;11853;48.080;11.960;2023-05-07T02:21:05;6.40;;;5.88;;
23362;SDS011;11853;48.080;11.960;2023-05-07T02:23:30;7.45;;;6.57;;
23362;SDS011;11853;48.080;11.960;2023-05-07T02:25:56;8.95;;;6.28;;
23362;SDS011;11853;48.080;11.960;2023-05-07T02:28:22;7.32;;;6.40;;
23362;SDS011;11853;48.080;11.960;2023-05-07T02:30:48;7.53;;;6.82;;
23362;SDS011;11853;48.080;11.960;2023-05-07T02:33:13;8.05;;;6.25;;
23362;SDS011;11853;48.080;11.960;2023-05-07T02:35:39;7.65;;;6.30;;
23362;SDS011;11853;48.080;11.960;2023-05-07T02:38:05;8.02;;;7.20;;
23362;SDS011;11853;48.080;11.960;2023-05-07T02:40:30;7.03;;;6.43;;
23362;SDS011;11853;48.080;11.960;2023-05-07T02:42:58;7.43;;;6.72;;
23362;SDS011;11853;48.080;11.960;2023-05-07T02:45:24;7.40;;;6.63;;
23362;SDS011;11853;48.080;11.960;2023-05-07T02:47:50;6.78;;;6.20;;
23362;SDS011;11853;48.080;11.960;2023-05-07T02:50:16;6.85;;;6.25;;
23362;SDS011;11853;48.080;11.960;2023-05-07T02:52:42;7.18;;;6.47;;
23362;SDS011;11853;48.080;11.960;2023-05-07T02:55:07;6.55;;;5.85;;
23362;SDS011;11853;48.080;11.960;2023-05-07T02:57:33;6.97;;;5.68;;
23362;SDS011;11853;48.080;11.960;2023-05-07T02:59:59;7.75;;;6.25;;
23362;SDS011;11853;48.080;11.960;2023-05-07T03:02:35;6.80;;;6.20;;
23362;SDS011;11853;48.080;11.960;2023-05-07T03:05:00;7.20;;;6.55;;
23362;SDS011;11853;48.080;11.960;2023-05-07T03:10:48;6.68;;;6.07;;
23362;SDS011;11853;48.080;11.960;2023-05-07T03:13:13;6.80;;;6.20;;
23362;SDS011;11853;48.080;11.960;2023-05-07T03:15:39;7.47;;;6.60;;
23362;SDS011;11853;48.080;11.960;2023-05-07T03:18:05;7.32;;;6.60;;
23362;SDS011;11853;48.080;11.960;2023-05-07T03:20:31;7.07;;;6.47;;
23362;SDS011;11853;48.080;11.960;2023-05-07T03:22:56;8.30;;;7.50;;
23362;SDS011;11853;48.080;11.960;2023-05-07T03:25:22;7.18;;;6.47;;
23362;SDS011;11853;48.080;11.960;2023-05-07T03:27:48;7.03;;;6.32;;
23362;SDS011;11853;48.080;11.960;2023-05-07T03:30:13;7.45;;;6.75;;
23362;SDS011;11853;48.080;11.960;2023-05-07T03:32:39;7.40;;;6.70;;
23362;SDS011;11853;48.080;11.960;2023-05-07T03:35:05;7.93;;;7.03;;
23362;SDS011;11853;48.080;11.960;2023-05-07T03:37:31;7.15;;;6.45;;
23362;SDS011;11853;48.080;11.960;2023-05-07T03:39:56;7.13;;;6.47;;
23362;SDS011;11853;48.080;11.960;2023-05-07T03:42:23;7.38;;;6.63;;
23362;SDS011;11853;48.080;11.960;2023-05-07T03:44:49;8.93;;;7.20;;
23362;SDS011;11853;48.080;11.960;2023-05-07T03:47:15;11.05;;;7.32;;
23362;SDS011;11853;48.080;11.960;2023-05-07T03:49:40;7.25;;;6.55;;
23362;SDS011;11853;48.080;11.960;2023-05-07T03:52:06;8.95;;;7.45;;
23362;SDS011;11853;48.080;11.960;2023-05-07T03:54:31;7.75;;;6.95;;
23362;SDS011;11853;48.080;11.960;2023-05-07T03:56:57;8.43;;;7.63;;
23362;SDS011;11853;48.080;11.960;2023-05-07T03:59:23;9.63;;;7.32;;
23362;SDS011;11853;48.080;11.960;2023-05-07T04:01:48;8.10;;;7.32;;
23362;SDS011;11853;48.080;11.960;2023-05-07T04:04:14;7.63;;;6.93;;
23362;SDS011;11853;48.080;11.960;2023-05-07T04:06:40;8.32;;;7.40;;
23362;SDS011;11853;48.080;11.960;2023-05-07T04:09:06;9.05;;;7.25;;
23362;SDS011;11853;48.080;11.960;2023-05-07T04:11:31;9.68;;;7.57;;
23362;SDS011;11853;48.080;11.960;2023-05-07T04:13:57;7.93;;;7.22;;
23362;SDS011;11853;48.080;11.960;2023-05-07T04:16:23;7.28;;;6.60;;
23362;SDS011;11853;48.080;11.960;2023-05-07T04:18:48;7.70;;;7.03;;
23362;SDS011;11853;48.080;11.960;2023-05-07T04:21:17;9.18;;;8.30;;
23362;SDS011;11853;48.080;11.960;2023-05-07T04:23:44;7.85;;;7.10;;
23362;SDS011;11853;48.080;11.960;2023-05-07T04:26:11;7.90;;;7.15;;
23362;SDS011;11853;48.080;11.960;2023-05-07T04:28:36;8.63;;;7.32;;
23362;SDS011;11853;48.080;11.960;2023-05-07T04:31:04;8.90;;;7.47;;
23362;SDS011;11853;48.080;11.960;2023-05-07T04:33:29;7.78;;;7.07;;
23362;SDS011;11853;48.080;11.960;2023-05-07T04:35:55;8.32;;;7.32;;
23362;SDS011;11853;48.080;11.960;2023-05-07T04:38:21;7.63;;;7.00;;
23362;SDS011;11853;48.080;11.960;2023-05-07T04:40:48;9.98;;;7.30;;
23362;SDS011;11853;48.080;11.960;2023-05-07T04:43:14;14.02;;;8.27;;
23362;SDS011;11853;48.080;11.960;2023-05-07T04:45:41;8.85;;;7.68;;
23362;SDS011;11853;48.080;11.960;2023-05-07T04:48:07;9.02;;;7.70;;
23362;SDS011;11853;48.080;11.960;2023-05-07T04:50:34;9.70;;;8.02;;
23362;SDS011;11853;48.080;11.960;2023-05-07T04:52:59;9.90;;;8.18;;
23362;SDS011;11853;48.080;11.960;2023-05-07T04:55:25;8.48;;;7.57;;
23362;SDS011;11853;48.080;11.960;2023-05-07T04:57:51;8.23;;;7.55;;
23362;SDS011;11853;48.080;11.960;2023-05-07T05:00:18;8.55;;;7.60;;
23362;SDS011;11853;48.080;11.960;2023-05-07T05:02:45;7.25;;;6.60;;
23362;SDS011;11853;48.080;11.960;2023-05-07T05:05:11;8.52;;;7.55;;
23362;SDS011;11853;48.080;11.960;2023-05-07T05:07:36;9.88;;;7.90;;
23362;SDS011;11853;48.080;11.960;2023-05-07T05:10:02;9.05;;;7.72;;
23362;SDS011;11853;48.080;11.960;2023-05-07T05:12:29;8.30;;;7.43;;
23362;SDS011;11853;48.080;11.960;2023-05-07T05:14:55;8.35;;;7.50;;
23362;SDS011;11853;48.080;11.960;2023-05-07T05:17:21;8.18;;;6.85;;
23362;SDS011;11853;48.080;11.960;2023-05-07T05:19:46;7.50;;;6.90;;
23362;SDS011;11853;48.080;11.960;2023-05-07T05:22:12;7.47;;;6.78;;
23362;SDS011;11853;48.080;11.960;2023-05-07T05:24:38;7.30;;;6.60;;
23362;SDS011;11853;48.080;11.960;2023-05-07T05:27:03;8.27;;;7.47;;
23362;SDS011;11853;48.080;11.960;2023-05-07T05:29:29;9.35;;;8.32;;
23362;SDS011;11853;48.080;11.960;2023-05-07T05:31:56;8.70;;;7.95;;
23362;SDS011;11853;48.080;11.960;2023-05-07T05:34:22;10.35;;;8.27;;
23362;SDS011;11853;48.080;11.960;2023-05-07T05:36:48;7.32;;;6.68;;
23362;SDS011;11853;48.080;11.960;2023-05-07T05:39:13;8.80;;;7.90;;
23362;SDS011;11853;48.080;11.960;2023-05-07T05:41:39;8.38;;;7.53;;
23362;SDS011;11853;48.080;11.960;2023-05-07T05:44:05;8.07;;;7.20;;
23362;SDS011;11853;48.080;11.960;2023-05-07T05:46:31;7.22;;;6.63;;
23362;SDS011;11853;48.080;11.960;2023-05-07T05:48:57;5.78;;;5.10;;
23362;SDS011;11853;48.080;11.960;2023-05-07T05:51:22;4.82;;;4.38;;
23362;SDS011;11853;48.080;11.960;2023-05-07T05:53:48;5.10;;;4.60;;
23362;SDS011;11853;48.080;11.960;2023-05-07T05:56:15;5.72;;;3.95;;
23362;SDS011;11853;48.080;11.960;2023-05-07T05:58:41;4.10;;;3.78;;
23362;SDS011;11853;48.080;11.960;2023-05-07T06:01:10;4.00;;;3.65;;
23362;SDS011;11853;48.080;11.960;2023-05-07T06:03:37;3.97;;;3.63;;
23362;SDS011;11853;48.080;11.960;2023-05-07T06:06:02;4.07;;;3.63;;
23362;SDS011;11853;48.080;11.960;2023-05-07T06:08:31;4.13;;;3.60;;
23362;SDS011;11853;48.080;11.960;2023-05-07T06:10:57;4.10;;;3.75;;
23362;SDS011;11853;48.080;11.960;2023-05-07T06:13:23;4.30;;;3.42;;
23362;SDS011;11853;48.080;11.960;2023-05-07T06:15:49;3.90;;;3.58;;
23362;SDS011;11853;48.080;11.960;2023-05-07T06:18:15;3.58;;;3.38;;
23362;SDS011;11853;48.080;11.960;2023-05-07T06:20:40;4.13;;;3.78;;
23362;SDS011;11853;48.080;11.960;2023-05-07T06:23:06;8.90;;;4.72;;
23362;SDS011;11853;48.080;11.960;2023-05-07T06:25:32;5.53;;;3.97;;
23362;SDS011;11853;48.080;11.960;2023-05-07T06:27:57;5.05;;;4.63;;
23362;SDS011;11853;48.080;11.960;2023-05-07T06:30:23;4.68;;;4.10;;
23362;SDS011;11853;48.080;11.960;2023-05-07T06:32:49;5.18;;;4.30;;
23362;SDS011;11853;48.080;11.960;2023-05-07T06:35:14;5.22;;;3.80;;
23362;SDS011;11853;48.080;11.960;2023-05-07T06:37:41;4.28;;;3.88;;
23362;SDS011;11853;48.080;11.960;2023-05-07T06:40:08;5.32;;;4.80;;
23362;SDS011;11853;48.080;11.960;2023-05-07T06:42:35;4.50;;;4.20;;
23362;SDS011;11853;48.080;11.960;2023-05-07T06:45:02;4.53;;;4.00;;
23362;SDS011;11853;48.080;11.960;2023-05-07T06:47:27;6.25;;;3.65;;
23362;SDS011;11853;48.080;11.960;2023-05-07T06:49:53;4.32;;;3.88;;
23362;SDS011;11853;48.080;11.960;2023-05-07T06:52:19;5.82;;;3.55;;
23362;SDS011;11853;48.080;11.960;2023-05-07T06:54:44;4.60;;;4.20;;
23362;SDS011;11853;48.080;11.960;2023-05-07T06:57:10;4.65;;;4.13;;
23362;SDS011;11853;48.080;11.960;2023-05-07T06:59:36;5.20;;;4.10;;
23362;SDS011;11853;48.080;11.960;2023-05-07T07:02:02;5.72;;;4.40;;
23362;SDS011;11853;48.080;11.960;2023-05-07T07:04:27;5.65;;;4.05;;
23362;SDS011;11853;48.080;11.960;2023-05-07T07:06:53;4.45;;;4.05;;
23362;SDS011;11853;48.080;11.960;2023-05-07T07:09:19;4.28;;;3.88;;
23362;SDS011;11853;48.080;11.960;2023-05-07T07:11:45;5.35;;;4.15;;
23362;SDS011;11853;48.080;11.960;2023-05-07T07:14:10;4.30;;;3.92;;
23362;SDS011;11853;48.080;11.960;2023-05-07T07:16:36;5.47;;;4.28;;
23362;SDS011;11853;48.080;11.960;2023-05-07T07:19:02;5.00;;;4.50;;
23362;SDS011;11853;48.080;11.960;2023-05-07T07:21:27;4.70;;;4.30;;
23362;SDS011;11853;48.080;11.960;2023-05-07T07:23:53;5.00;;;4.60;;
23362;SDS011;11853;48.080;11.960;2023-05-07T07:26:19;5.15;;;4.70;;
23362;SDS011;11853;48.080;11.960;2023-05-07T07:28:44;4.78;;;4.38;;
23362;SDS011;11853;48.080;11.960;2023-05-07T07:31:11;6.28;;;5.38;;
23362;SDS011;11853;48.080;11.960;2023-05-07T07:33:37;5.43;;;4.93;;
23362;SDS011;11853;48.080;11.960;2023-05-07T07:36:03;5.45;;;4.95;;
23362;SDS011;11853;48.080;11.960;2023-05-07T07:38:30;6.35;;;5.32;;
23362;SDS011;11853;48.080;11.960;2023-05-07T07:40:56;5.82;;;5.22;;
23362;SDS011;11853;48.080;11.960;2023-05-07T07:43:22;5.53;;;4.68;;
23362;SDS011;11853;48.080;11.960;2023-05-07T07:45:47;6.00;;;5.50;;
23362;SDS011;11853;48.080;11.960;2023-05-07T07:48:13;5.82;;;5.30;;
23362;SDS011;11853;48.080;11.960;2023-05-07T07:50:39;5.40;;;4.90;;
23362;SDS011;11853;48.080;11.960;2023-05-07T07:53:05;5.80;;;5.20;;
23362;SDS011;11853;48.080;11.960;2023-05-07T07:55:30;5.35;;;4.85;;
23362;SDS011;11853;48.080;11.960;2023-05-07T07:57:57;5.45;;;4.95;;
23362;SDS011;11853;48.080;11.960;2023-05-07T08:00:22;7.45;;;4.88;;
23362;SDS011;11853;48.080;11.960;2023-05-07T08:02:48;5.18;;;4.75;;
23362;SDS011;11853;48.080;11.960;2023-05-07T08:05:14;5.72;;;4.65;;
23362;SDS011;11853;48.080;11.960;2023-05-07T08:07:40;4.65;;;4.25;;
23362;SDS011;11853;48.080;11.960;2023-05-07T08:10:06;6.07;;;4.78;;
23362;SDS011;11853;48.080;11.960;2023-05-07T08:12:32;5.90;;;4.88;;
23362;SDS011;11853;48.080;11.960;2023-05-07T08:14:57;5.82;;;5.13;;
23362;SDS011;11853;48.080;11.960;2023-05-07T08:17:24;5.38;;;4.80;;
23362;SDS011;11853;48.080;11.960;2023-05-07T08:19:49;6.00;;;5.32;;
23362;SDS011;11853;48.080;11.960;2023-05-07T08:22:15;6.50;;;5.90;;
23362;SDS011;11853;48.080;11.960;2023-05-07T08:24:42;7.20;;;5.20;;
23362;SDS011;11853;48.080;11.960;2023-05-07T08:27:08;5.53;;;5.10;;
23362;SDS011;11853;48.080;11.960;2023-05-07T08:29:34;5.50;;;5.00;;
23362;SDS011;11853;48.080;11.960;2023-05-07T08:32:00;6.18;;;5.55;;
23362;SDS011;11853;48.080;11.960;2023-05-07T08:34:26;5.63;;;5.13;;
23362;SDS011;11853;48.080;11.960;2023-05-07T08:36:52;5.90;;;5.30;;
23362;SDS011;11853;48.080;11.960;2023-05-07T08:39:18;5.88;;;5.38;;
23362;SDS011;11853;48.080;11.960;2023-05-07T08:41:44;6.32;;;5.25;;
23362;SDS011;11853;48.080;11.960;2023-05-07T08:44:13;5.32;;;4.82;;
23362;SDS011;11853;48.080;11.960;2023-05-07T08:46:39;7.03;;;5.10;;
23362;SDS011;11853;48.080;11.960;2023-05-07T08:49:13;5.50;;;4.90;;
23362;SDS011;11853;48.080;11.960;2023-05-07T08:51:42;5.40;;;4.90;;
23362;SDS011;11853;48.080;11.960;2023-05-07T08:54:07;5.90;;;5.30;;
23362;SDS011;11853;48.080;11.960;2023-05-07T08:56:35;6.68;;;5.45;;
23362;SDS011;11853;48.080;11.960;2023-05-07T08:59:01;5.50;;;5.10;;
23362;SDS011;11853;48.080;11.960;2023-05-07T09:01:31;5.35;;;4.78;;
23362;SDS011;11853;48.080;11.960;2023-05-07T09:03:57;5.28;;;4.78;;
23362;SDS011;11853;48.080;11.960;2023-05-07T09:06:23;5.25;;;4.75;;
23362;SDS011;11853;48.080;11.960;2023-05-07T09:08:49;6.93;;;5.20;;
23362;SDS011;11853;48.080;11.960;2023-05-07T09:11:20;5.28;;;4.57;;
23362;SDS011;11853;48.080;11.960;2023-05-07T09:13:56;5.25;;;4.75;;
23362;SDS011;11853;48.080;11.960;2023-05-07T09:16:25;4.88;;;4.38;;
23362;SDS011;11853;48.080;11.960;2023-05-07T09:18:51;6.15;;;4.25;;
23362;SDS011;11853;48.080;11.960;2023-05-07T09:21:19;6.25;;;4.25;;
23362;SDS011;11853;48.080;11.960;2023-05-07T09:23:47;5.57;;;4.75;;
23362;SDS011;11853;48.080;11.960;2023-05-07T09:26:14;5.05;;;4.13;;
23362;SDS011;11853;48.080;11.960;2023-05-07T09:28:40;5.65;;;5.00;;
23362;SDS011;11853;48.080;11.960;2023-05-07T09:31:07;4.80;;;4.32;;
23362;SDS011;11853;48.080;11.960;2023-05-07T09:33:33;5.32;;;4.82;;
23362;SDS011;11853;48.080;11.960;2023-05-07T09:36:03;4.30;;;3.90;;
23362;SDS011;11853;48.080;11.960;2023-05-07T09:38:34;5.07;;;4.53;;
23362;SDS011;11853;48.080;11.960;2023-05-07T09:41:04;5.40;;;4.70;;
23362;SDS011;11853;48.080;11.960;2023-05-07T09:43:32;4.97;;;4.50;;
23362;SDS011;11853;48.080;11.960;2023-05-07T09:46:00;6.47;;;4.65;;
23362;SDS011;11853;48.080;11.960;2023-05-07T09:48:29;4.25;;;3.95;;
23362;SDS011;11853;48.080;11.960;2023-05-07T09:50:55;5.20;;;3.90;;
23362;SDS011;11853;48.080;11.960;2023-05-07T09:53:25;6.43;;;3.65;;
23362;SDS011;11853;48.080;11.960;2023-05-07T09:55:52;4.43;;;4.00;;
23362;SDS011;11853;48.080;11.960;2023-05-07T09:58:18;3.97;;;3.50;;
23362;SDS011;11853;48.080;11.960;2023-05-07T10:00:45;4.05;;;3.47;;
23362;SDS011;11853;48.080;11.960;2023-05-07T10:03:11;7.40;;;3.28;;
23362;SDS011;11853;48.080;11.960;2023-05-07T10:05:39;3.03;;;2.83;;
23362;SDS011;11853;48.080;11.960;2023-05-07T10:08:05;3.88;;;2.72;;
23362;SDS011;11853;48.080;11.960;2023-05-07T10:10:34;4.45;;;3.10;;
23362;SDS011;11853;48.080;11.960;2023-05-07T10:13:03;4.28;;;2.90;;
23362;SDS011;11853;48.080;11.960;2023-05-07T10:15:30;4.57;;;2.80;;
23362;SDS011;11853;48.080;11.960;2023-05-07T10:17:56;3.72;;;2.42;;
23362;SDS011;11853;48.080;11.960;2023-05-07T10:20:23;3.00;;;2.30;;
23362;SDS011;11853;48.080;11.960;2023-05-07T10:22:50;4.53;;;2.70;;
23362;SDS011;11853;48.080;11.960;2023-05-07T10:25:21;2.53;;;2.30;;
23362;SDS011;11853;48.080;11.960;2023-05-07T10:27:50;2.63;;;2.42;;
23362;SDS011;11853;48.080;11.960;2023-05-07T10:33:35;3.63;;;2.65;;
23362;SDS011;11853;48.080;11.960;2023-05-07T10:36:02;3.42;;;2.55;;
23362;SDS011;11853;48.080;11.960;2023-05-07T10:38:30;10.27;;;2.17;;
23362;SDS011;11853;48.080;11.960;2023-05-07T10:40:56;3.00;;;2.67;;
23362;SDS011;11853;48.080;11.960;2023-05-07T10:43:22;4.30;;;3.17;;
23362;SDS011;11853;48.080;11.960;2023-05-07T10:51:28;3.63;;;2.60;;
23362;SDS011;11853;48.080;11.960;2023-05-07T10:56:36;4.40;;;2.95;;
23362;SDS011;11853;48.080;11.960;2023-05-07T11:01:55;5.10;;;2.58;;
23362;SDS011;11853;48.080;11.960;2023-05-07T11:04:24;5.05;;;1.98;;
23362;SDS011;11853;48.080;11.960;2023-05-07T11:15:02;2.08;;;1.67;;
23362;SDS011;11853;48.080;11.960;2023-05-07T11:17:28;2.42;;;1.98;;
23362;SDS011;11853;48.080;11.960;2023-05-07T11:19:57;4.75;;;2.00;;
23362;SDS011;11853;48.080;11.960;2023-05-07T11:27:31;5.22;;;1.90;;
23362;SDS011;11853;48.080;11.960;2023-05-07T11:29:57;2.85;;;2.10;;
23362;SDS011;11853;48.080;11.960;2023-05-07T11:32:27;2.92;;;2.00;;
23362;SDS011;11853;48.080;11.960;2023-05-07T11:34:55;3.25;;;2.00;;
23362;SDS011;11853;48.080;11.960;2023-05-07T11:37:22;2.88;;;2.00;;
23362;SDS011;11853;48.080;11.960;2023-05-07T11:39:49;2.05;;;1.95;;
23362;SDS011;11853;48.080;11.960;2023-05-07T11:42:30;3.17;;;2.20;;
23362;SDS011;11853;48.080;11.960;2023-05-07T11:44:57;5.15;;;2.40;;
23362;SDS011;11853;48.080;11.960;2023-05-07T11:47:24;2.28;;;2.08;;
23362;SDS011;11853;48.080;11.960;2023-05-07T11:49:51;2.63;;;2.00;;
23362;SDS011;11853;48.080;11.960;2023-05-07T11:52:19;2.67;;;2.10;;
23362;SDS011;11853;48.080;11.960;2023-05-07T11:57:22;2.35;;;2.08;;
23362;SDS011;11853;48.080;11.960;2023-05-07T11:59:55;3.30;;;1.95;;
23362;SDS011;11853;48.080;11.960;2023-05-07T12:02:22;2.72;;;2.53;;
23362;SDS011;11853;48.080;11.960;2023-05-07T12:04:50;4.95;;;2.15;;
23362;SDS011;11853;48.080;11.960;2023-05-07T12:07:16;2.28;;;1.92;;
23362;SDS011;11853;48.080;11.960;2023-05-07T12:09:44;2.15;;;2.00;;
23362;SDS011;11853;48.080;11.960;2023-05-07T12:12:10;7.78;;;2.55;;
23362;SDS011;11853;48.080;11.960;2023-05-07T12:14:40;2.15;;;1.95;;
23362;SDS011;11853;48.080;11.960;2023-05-07T12:17:09;2.17;;;2.00;;
23362;SDS011;11853;48.080;11.960;2023-05-07T12:19:36;3.78;;;2.60;;
23362;SDS011;11853;48.080;11.960;2023-05-07T12:22:03;2.92;;;2.30;;
23362;SDS011;11853;48.080;11.960;2023-05-07T12:24:42;2.30;;;2.10;;
23362;SDS011;11853;48.080;11.960;2023-05-07T12:27:12;2.55;;;2.35;;
23362;SDS011;11853;48.080;11.960;2023-05-07T12:29:48;4.00;;;3.05;;
23362;SDS011;11853;48.080;11.960;2023-05-07T12:32:15;2.58;;;2.22;;
23362;SDS011;11853;48.080;11.960;2023-05-07T12:34:42;2.90;;;2.10;;
23362;SDS011;11853;48.080;11.960;2023-05-07T12:37:08;3.45;;;2.25;;
23362;SDS011;11853;48.080;11.960;2023-05-07T12:39:35;2.70;;;1.95;;
23362;SDS011;11853;48.080;11.960;2023-05-07T12:42:00;2.70;;;2.50;;
23362;SDS011;11853;48.080;11.960;2023-05-07T12:44:30;3.83;;;2.35;;
23362;SDS011;11853;48.080;11.960;2023-05-07T12:46:58;2.35;;;2.20;;
23362;SDS011;11853;48.080;11.960;2023-05-07T12:49:26;2.55;;;2.35;;
23362;SDS011;11853;48.080;11.960;2023-05-07T12:51:53;2.58;;;2.22;;
23362;SDS011;11853;48.080;11.960;2023-05-07T12:54:28;2.90;;;2.28;;
23362;SDS011;11853;48.080;11.960;2023-05-07T12:57:05;4.75;;;2.30;;
23362;SDS011;11853;48.080;11.960;2023-05-07T12:59:38;3.17;;;2.10;;
23362;SDS011;11853;48.080;11.960;2023-05-07T13:02:06;6.32;;;2.67;;
23362;SDS011;11853;48.080;11.960;2023-05-07T13:04:32;4.20;;;2.30;;
23362;SDS011;11853;48.080;11.960;2023-05-07T13:06:59;3.28;;;2.53;;
23362;SDS011;11853;48.080;11.960;2023-05-07T13:09:25;4.10;;;2.85;;
23362;SDS011;11853;48.080;11.960;2023-05-07T13:11:51;3.22;;;2.70;;
23362;SDS011;11853;48.080;11.960;2023-05-07T13:14:16;3.47;;;2.50;;
23362;SDS011;11853;48.080;11.960;2023-05-07T13:16:42;3.33;;;2.55;;
23362;SDS011;11853;48.080;11.960;2023-05-07T13:19:08;2.60;;;2.40;;
23362;SDS011;11853;48.080;11.960;2023-05-07T13:21:34;2.30;;;2.10;;
23362;SDS011;11853;48.080;11.960;2023-05-07T13:23:59;3.25;;;2.70;;
23362;SDS011;11853;48.080;11.960;2023-05-07T13:26:25;4.43;;;2.45;;
23362;SDS011;11853;48.080;11.960;2023-05-07T13:28:54;5.93;;;2.45;;
23362;SDS011;11853;48.080;11.960;2023-05-07T13:31:19;2.70;;;2.50;;
23362;SDS011;11853;48.080;11.960;2023-05-07T13:33:46;2.60;;;2.40;;
23362;SDS011;11853;48.080;11.960;2023-05-07T13:36:12;2.55;;;2.38;;
23362;SDS011;11853;48.080;11.960;2023-05-07T13:38:38;3.28;;;2.92;;
23362;SDS011;11853;48.080;11.960;2023-05-07T13:41:05;3.45;;;2.70;;
23362;SDS011;11853;48.080;11.960;2023-05-07T13:43:34;2.60;;;2.40;;
23362;SDS011;11853;48.080;11.960;2023-05-07T13:48:27;2.33;;;2.15;;
23362;SDS011;11853;48.080;11.960;2023-05-07T13:50:53;2.85;;;2.65;;
23362;SDS011;11853;48.080;11.960;2023-05-07T13:53:19;3.85;;;2.35;;
23362;SDS011;11853;48.080;11.960;2023-05-07T13:55:45;4.25;;;2.95;;
23362;SDS011;11853;48.080;11.960;2023-05-07T13:58:14;3.65;;;2.55;;
23362;SDS011;11853;48.080;11.960;2023-05-07T14:00:39;2.85;;;2.20;;
23362;SDS011;11853;48.080;11.960;2023-05-07T14:03:05;3.75;;;2.00;;
23362;SDS011;11853;48.080;11.960;2023-05-07T14:05:31;4.43;;;2.70;;
23362;SDS011;11853;48.080;11.960;2023-05-07T14:08:03;3.90;;;2.30;;
23362;SDS011;11853;48.080;11.960;2023-05-07T14:10:30;2.58;;;2.30;;
23362;SDS011;11853;48.080;11.960;2023-05-07T14:12:56;1.98;;;1.83;;
23362;SDS011;11853;48.080;11.960;2023-05-07T14:15:22;3.47;;;2.20;;
23362;SDS011;11853;48.080;11.960;2023-05-07T14:17:48;2.10;;;2.00;;
23362;SDS011;11853;48.080;11.960;2023-05-07T14:20:14;2.70;;;2.50;;
23362;SDS011;11853;48.080;11.960;2023-05-07T14:22:39;2.88;;;2.33;;
23362;SDS011;11853;48.080;11.960;2023-05-07T14:25:06;2.28;;;1.70;;
23362;SDS011;11853;48.080;11.960;2023-05-07T14:27:32;2.85;;;2.55;;
23362;SDS011;11853;48.080;11.960;2023-05-07T14:29:58;4.15;;;2.30;;
23362;SDS011;11853;48.080;11.960;2023-05-07T14:32:24;3.95;;;2.10;;
23362;SDS011;11853;48.080;11.960;2023-05-07T14:34:49;2.78;;;2.38;;
23362;SDS011;11853;48.080;11.960;2023-05-07T14:37:30;2.60;;;2.40;;
23362;SDS011;11853;48.080;11.960;2023-05-07T14:40:24;2.38;;;2.15;;
23362;SDS011;11853;48.080;11.960;2023-05-07T14:42:50;2.90;;;2.33;;
23362;SDS011;11853;48.080;11.960;2023-05-07T14:45:16;3.67;;;2.15;;
23362;SDS011;11853;48.080;11.960;2023-05-07T14:47:42;3.75;;;2.38;;
23362;SDS011;11853;48.080;11.960;2023-05-07T14:50:07;2.15;;;2.00;;
23362;SDS011;11853;48.080;11.960;2023-05-07T14:52:33;3.10;;;2.50;;
23362;SDS011;11853;48.080;11.960;2023-05-07T14:54:59;3.17;;;1.92;;
23362;SDS011;11853;48.080;11.960;2023-05-07T14:57:25;2.17;;;1.98;;
23362;SDS011;11853;48.080;11.960;2023-05-07T14:59:51;3.28;;;2.10;;
23362;SDS011;11853;48.080;11.960;2023-05-07T15:02:16;2.13;;;2.03;;
23362;SDS011;11853;48.080;11.960;2023-05-07T15:04:43;4.20;;;2.30;;
23362;SDS011;11853;48.080;11.960;2023-05-07T15:07:12;3.45;;;1.80;;